sensor_id;sensor_type;location;lat;lon;timestamp;P1;durP1;ratioP1;P2;durP2;ratioP2
68655;SDS011;55638;51.122;13.606;2023-12-28T00:00:32;2.95;;;1.40;;
68655;SDS011;55638;51.122;13.606;2023-12-28T00:02:04;3.58;;;1.38;;
68655;SDS011;55638;51.122;13.606;2023-12-28T00:03:36;2.17;;;1.30;;
68655;SDS011;55638;51.122;13.606;2023-12-28T00:05:08;3.33;;;1.50;;
68655;SDS011;55638;51.122;13.606;2023-12-28T00:06:40;2.88;;;1.60;;
68655;SDS011;55638;51.122;13.606;2023-12-28T00:08:12;2.22;;;1.48;;
68655;SDS011;55638;51.122;13.606;2023-12-28T00:09:44;2.50;;;1.23;;
68655;SDS011;55638;51.122;13.606;2023-12-28T00:11:16;2.88;;;1.77;;
68655;SDS011;55638;51.122;13.606;2023-12-28T00:12:48;3.95;;;1.90;;
68655;SDS011;55638;51.122;13.606;2023-12-28T00:14:20;3.63;;;2.10;;
68655;SDS011;55638;51.122;13.606;2023-12-28T00:15:51;5.80;;;1.98;;
68655;SDS011;55638;51.122;13.606;2023-12-28T00:17:23;3.08;;;1.52;;
68655;SDS011;55638;51.122;13.606;2023-12-28T00:18:55;3.83;;;1.80;;
68655;SDS011;55638;51.122;13.606;2023-12-28T00:20:27;3.90;;;2.00;;
68655;SDS011;55638;51.122;13.606;2023-12-28T00:21:59;4.47;;;1.90;;
68655;SDS011;55638;51.122;13.606;2023-12-28T00:23:31;3.17;;;1.88;;
68655;SDS011;55638;51.122;13.606;2023-12-28T00:25:03;3.50;;;1.85;;
68655;SDS011;55638;51.122;13.606;2023-12-28T00:26:36;3.80;;;2.15;;
68655;SDS011;55638;51.122;13.606;2023-12-28T00:28:09;3.70;;;1.80;;
68655;SDS011;55638;51.122;13.606;2023-12-28T00:29:41;3.08;;;1.35;;
68655;SDS011;55638;51.122;13.606;2023-12-28T00:31:14;1.98;;;1.02;;
68655;SDS011;55638;51.122;13.606;2023-12-28T00:32:48;2.40;;;1.02;;
68655;SDS011;55638;51.122;13.606;2023-12-28T00:34:19;2.83;;;1.13;;
68655;SDS011;55638;51.122;13.606;2023-12-28T00:35:51;1.75;;;1.20;;
68655;SDS011;55638;51.122;13.606;2023-12-28T00:37:23;2.75;;;1.60;;
68655;SDS011;55638;51.122;13.606;2023-12-28T00:38:55;3.08;;;1.60;;
68655;SDS011;55638;51.122;13.606;2023-12-28T00:40:29;2.22;;;1.52;;
68655;SDS011;55638;51.122;13.606;2023-12-28T00:42:01;4.57;;;1.60;;
68655;SDS011;55638;51.122;13.606;2023-12-28T00:43:33;3.22;;;1.58;;
68655;SDS011;55638;51.122;13.606;2023-12-28T00:45:05;2.85;;;1.90;;
68655;SDS011;55638;51.122;13.606;2023-12-28T00:46:38;3.47;;;1.58;;
68655;SDS011;55638;51.122;13.606;2023-12-28T00:48:10;2.83;;;1.38;;
68655;SDS011;55638;51.122;13.606;2023-12-28T00:49:42;2.72;;;1.40;;
68655;SDS011;55638;51.122;13.606;2023-12-28T00:51:14;2.20;;;1.52;;
68655;SDS011;55638;51.122;13.606;2023-12-28T00:52:46;3.90;;;1.67;;
68655;SDS011;55638;51.122;13.606;2023-12-28T00:54:18;3.78;;;1.45;;
68655;SDS011;55638;51.122;13.606;2023-12-28T00:55:51;2.22;;;1.30;;
68655;SDS011;55638;51.122;13.606;2023-12-28T00:57:23;4.15;;;1.30;;
68655;SDS011;55638;51.122;13.606;2023-12-28T00:58:55;2.67;;;1.27;;
68655;SDS011;55638;51.122;13.606;2023-12-28T01:00:27;2.50;;;1.00;;
68655;SDS011;55638;51.122;13.606;2023-12-28T01:02:00;2.88;;;1.13;;
68655;SDS011;55638;51.122;13.606;2023-12-28T01:03:32;3.03;;;1.08;;
68655;SDS011;55638;51.122;13.606;2023-12-28T01:05:04;1.48;;;0.80;;
68655;SDS011;55638;51.122;13.606;2023-12-28T01:06:36;2.88;;;1.15;;
68655;SDS011;55638;51.122;13.606;2023-12-28T01:08:08;2.35;;;1.10;;
68655;SDS011;55638;51.122;13.606;2023-12-28T01:09:40;1.33;;;0.80;;
68655;SDS011;55638;51.122;13.606;2023-12-28T01:11:12;2.47;;;0.98;;
68655;SDS011;55638;51.122;13.606;2023-12-28T01:12:44;1.70;;;0.80;;
68655;SDS011;55638;51.122;13.606;2023-12-28T01:14:16;2.03;;;1.10;;
68655;SDS011;55638;51.122;13.606;2023-12-28T01:15:48;1.55;;;0.80;;
68655;SDS011;55638;51.122;13.606;2023-12-28T01:17:21;1.60;;;0.93;;
68655;SDS011;55638;51.122;13.606;2023-12-28T01:18:53;1.88;;;0.82;;
68655;SDS011;55638;51.122;13.606;2023-12-28T01:20:25;1.77;;;0.70;;
68655;SDS011;55638;51.122;13.606;2023-12-28T01:21:57;1.80;;;0.90;;
68655;SDS011;55638;51.122;13.606;2023-12-28T01:23:29;2.67;;;1.02;;
68655;SDS011;55638;51.122;13.606;2023-12-28T01:25:01;1.42;;;0.90;;
68655;SDS011;55638;51.122;13.606;2023-12-28T01:26:33;2.30;;;1.10;;
68655;SDS011;55638;51.122;13.606;2023-12-28T01:28:06;1.15;;;0.77;;
68655;SDS011;55638;51.122;13.606;2023-12-28T01:29:38;1.30;;;0.90;;
68655;SDS011;55638;51.122;13.606;2023-12-28T01:31:10;1.90;;;0.95;;
68655;SDS011;55638;51.122;13.606;2023-12-28T01:32:42;1.63;;;1.30;;
68655;SDS011;55638;51.122;13.606;2023-12-28T01:34:14;1.65;;;1.00;;
68655;SDS011;55638;51.122;13.606;2023-12-28T01:35:46;1.85;;;1.20;;
68655;SDS011;55638;51.122;13.606;2023-12-28T01:37:17;2.92;;;1.38;;
68655;SDS011;55638;51.122;13.606;2023-12-28T01:38:49;2.65;;;1.10;;
68655;SDS011;55638;51.122;13.606;2023-12-28T01:40:21;2.78;;;1.10;;
68655;SDS011;55638;51.122;13.606;2023-12-28T01:41:53;2.90;;;1.35;;
68655;SDS011;55638;51.122;13.606;2023-12-28T01:43:25;1.98;;;1.17;;
68655;SDS011;55638;51.122;13.606;2023-12-28T01:44:57;2.22;;;1.33;;
68655;SDS011;55638;51.122;13.606;2023-12-28T01:46:29;1.50;;;1.10;;
68655;SDS011;55638;51.122;13.606;2023-12-28T01:48:03;1.75;;;1.17;;
68655;SDS011;55638;51.122;13.606;2023-12-28T01:49:36;2.28;;;1.10;;
68655;SDS011;55638;51.122;13.606;2023-12-28T01:51:08;2.45;;;1.10;;
68655;SDS011;55638;51.122;13.606;2023-12-28T01:52:41;1.58;;;0.90;;
68655;SDS011;55638;51.122;13.606;2023-12-28T01:54:13;2.30;;;1.00;;
68655;SDS011;55638;51.122;13.606;2023-12-28T01:55:45;1.25;;;0.82;;
68655;SDS011;55638;51.122;13.606;2023-12-28T01:57:17;1.77;;;0.82;;
68655;SDS011;55638;51.122;13.606;2023-12-28T01:58:49;1.60;;;1.15;;
68655;SDS011;55638;51.122;13.606;2023-12-28T02:00:24;1.77;;;1.00;;
68655;SDS011;55638;51.122;13.606;2023-12-28T02:01:56;1.67;;;0.95;;
68655;SDS011;55638;51.122;13.606;2023-12-28T02:03:28;1.55;;;0.95;;
68655;SDS011;55638;51.122;13.606;2023-12-28T02:05:01;2.38;;;1.15;;
68655;SDS011;55638;51.122;13.606;2023-12-28T02:06:33;1.73;;;0.90;;
68655;SDS011;55638;51.122;13.606;2023-12-28T02:08:05;1.15;;;0.80;;
68655;SDS011;55638;51.122;13.606;2023-12-28T02:09:37;0.85;;;0.70;;
68655;SDS011;55638;51.122;13.606;2023-12-28T02:11:09;2.10;;;0.90;;
68655;SDS011;55638;51.122;13.606;2023-12-28T02:12:41;1.38;;;0.80;;
68655;SDS011;55638;51.122;13.606;2023-12-28T02:14:14;2.15;;;0.70;;
68655;SDS011;55638;51.122;13.606;2023-12-28T02:15:47;0.90;;;0.60;;
68655;SDS011;55638;51.122;13.606;2023-12-28T02:17:26;2.00;;;0.60;;
68655;SDS011;55638;51.122;13.606;2023-12-28T02:19:15;1.00;;;0.50;;
68655;SDS011;55638;51.122;13.606;2023-12-28T02:20:55;1.73;;;0.57;;
68655;SDS011;55638;51.122;13.606;2023-12-28T02:22:29;1.38;;;0.55;;
68655;SDS011;55638;51.122;13.606;2023-12-28T02:24:01;0.50;;;0.40;;
68655;SDS011;55638;51.122;13.606;2023-12-28T02:25:33;0.60;;;0.52;;
68655;SDS011;55638;51.122;13.606;2023-12-28T02:27:05;1.20;;;0.40;;
68655;SDS011;55638;51.122;13.606;2023-12-28T02:28:37;0.70;;;0.40;;
68655;SDS011;55638;51.122;13.606;2023-12-28T02:30:09;0.80;;;0.40;;
68655;SDS011;55638;51.122;13.606;2023-12-28T02:31:45;0.55;;;0.30;;
68655;SDS011;55638;51.122;13.606;2023-12-28T02:33:32;0.65;;;0.40;;
68655;SDS011;55638;51.122;13.606;2023-12-28T02:35:57;0.50;;;0.40;;
68655;SDS011;55638;51.122;13.606;2023-12-28T02:37:06;0.70;;;0.40;;
68655;SDS011;55638;51.122;13.606;2023-12-28T02:38:38;0.70;;;0.30;;
68655;SDS011;55638;51.122;13.606;2023-12-28T02:40:14;1.25;;;0.30;;
68655;SDS011;55638;51.122;13.606;2023-12-28T02:41:47;0.50;;;0.40;;
68655;SDS011;55638;51.122;13.606;2023-12-28T02:43:19;0.50;;;0.40;;
68655;SDS011;55638;51.122;13.606;2023-12-28T02:44:51;1.10;;;0.50;;
68655;SDS011;55638;51.122;13.606;2023-12-28T02:46:23;0.65;;;0.40;;
68655;SDS011;55638;51.122;13.606;2023-12-28T02:47:55;1.23;;;0.35;;
68655;SDS011;55638;51.122;13.606;2023-12-28T02:49:27;0.88;;;0.50;;
68655;SDS011;55638;51.122;13.606;2023-12-28T02:50:59;0.57;;;0.40;;
68655;SDS011;55638;51.122;13.606;2023-12-28T02:52:31;0.55;;;0.43;;
68655;SDS011;55638;51.122;13.606;2023-12-28T02:54:03;0.73;;;0.60;;
68655;SDS011;55638;51.122;13.606;2023-12-28T02:55:35;1.08;;;0.50;;
68655;SDS011;55638;51.122;13.606;2023-12-28T02:57:07;0.68;;;0.40;;
68655;SDS011;55638;51.122;13.606;2023-12-28T02:58:38;0.47;;;0.30;;
68655;SDS011;55638;51.122;13.606;2023-12-28T03:00:10;0.52;;;0.40;;
68655;SDS011;55638;51.122;13.606;2023-12-28T03:01:43;0.98;;;0.50;;
68655;SDS011;55638;51.122;13.606;2023-12-28T03:03:15;0.43;;;0.43;;
68655;SDS011;55638;51.122;13.606;2023-12-28T03:04:47;0.80;;;0.40;;
68655;SDS011;55638;51.122;13.606;2023-12-28T03:06:19;0.50;;;0.40;;
68655;SDS011;55638;51.122;13.606;2023-12-28T03:07:51;0.70;;;0.38;;
68655;SDS011;55638;51.122;13.606;2023-12-28T03:09:23;0.68;;;0.50;;
68655;SDS011;55638;51.122;13.606;2023-12-28T03:10:54;0.45;;;0.40;;
68655;SDS011;55638;51.122;13.606;2023-12-28T03:12:27;0.80;;;0.40;;
68655;SDS011;55638;51.122;13.606;2023-12-28T03:13:59;0.80;;;0.50;;
68655;SDS011;55638;51.122;13.606;2023-12-28T03:15:33;0.55;;;0.47;;
68655;SDS011;55638;51.122;13.606;2023-12-28T03:17:04;0.40;;;0.30;;
68655;SDS011;55638;51.122;13.606;2023-12-28T03:18:36;0.65;;;0.40;;
68655;SDS011;55638;51.122;13.606;2023-12-28T03:20:09;0.85;;;0.50;;
68655;SDS011;55638;51.122;13.606;2023-12-28T03:21:41;0.47;;;0.40;;
68655;SDS011;55638;51.122;13.606;2023-12-28T03:23:13;1.15;;;0.47;;
68655;SDS011;55638;51.122;13.606;2023-12-28T03:24:46;0.88;;;0.47;;
68655;SDS011;55638;51.122;13.606;2023-12-28T03:26:18;0.70;;;0.40;;
68655;SDS011;55638;51.122;13.606;2023-12-28T03:27:50;1.80;;;0.50;;
68655;SDS011;55638;51.122;13.606;2023-12-28T03:29:22;0.60;;;0.50;;
68655;SDS011;55638;51.122;13.606;2023-12-28T03:30:55;0.40;;;0.40;;
68655;SDS011;55638;51.122;13.606;2023-12-28T03:32:27;0.55;;;0.43;;
68655;SDS011;55638;51.122;13.606;2023-12-28T03:33:59;0.70;;;0.30;;
68655;SDS011;55638;51.122;13.606;2023-12-28T03:35:31;1.05;;;0.50;;
68655;SDS011;55638;51.122;13.606;2023-12-28T03:37:03;0.68;;;0.40;;
68655;SDS011;55638;51.122;13.606;2023-12-28T03:38:35;0.73;;;0.47;;
68655;SDS011;55638;51.122;13.606;2023-12-28T03:40:07;0.70;;;0.50;;
68655;SDS011;55638;51.122;13.606;2023-12-28T03:41:39;0.65;;;0.40;;
68655;SDS011;55638;51.122;13.606;2023-12-28T03:43:11;0.68;;;0.40;;
68655;SDS011;55638;51.122;13.606;2023-12-28T03:44:44;0.60;;;0.45;;
68655;SDS011;55638;51.122;13.606;2023-12-28T03:46:16;0.45;;;0.40;;
68655;SDS011;55638;51.122;13.606;2023-12-28T03:47:48;0.85;;;0.40;;
68655;SDS011;55638;51.122;13.606;2023-12-28T03:49:21;0.40;;;0.40;;
68655;SDS011;55638;51.122;13.606;2023-12-28T03:50:53;0.82;;;0.40;;
68655;SDS011;55638;51.122;13.606;2023-12-28T03:52:26;0.60;;;0.50;;
68655;SDS011;55638;51.122;13.606;2023-12-28T03:53:58;0.82;;;0.60;;
68655;SDS011;55638;51.122;13.606;2023-12-28T03:55:29;0.40;;;0.30;;
68655;SDS011;55638;51.122;13.606;2023-12-28T03:57:02;1.25;;;0.40;;
68655;SDS011;55638;51.122;13.606;2023-12-28T03:58:34;1.00;;;0.43;;
68655;SDS011;55638;51.122;13.606;2023-12-28T04:00:06;0.50;;;0.32;;
68655;SDS011;55638;51.122;13.606;2023-12-28T04:01:43;1.00;;;0.50;;
68655;SDS011;55638;51.122;13.606;2023-12-28T04:03:15;0.57;;;0.32;;
68655;SDS011;55638;51.122;13.606;2023-12-28T04:04:48;0.70;;;0.50;;
68655;SDS011;55638;51.122;13.606;2023-12-28T04:06:19;1.23;;;0.50;;
68655;SDS011;55638;51.122;13.606;2023-12-28T04:07:51;1.40;;;0.63;;
68655;SDS011;55638;51.122;13.606;2023-12-28T04:09:23;0.50;;;0.50;;
68655;SDS011;55638;51.122;13.606;2023-12-28T04:10:56;0.80;;;0.50;;
68655;SDS011;55638;51.122;13.606;2023-12-28T04:12:28;0.75;;;0.45;;
68655;SDS011;55638;51.122;13.606;2023-12-28T04:14:00;0.82;;;0.45;;
68655;SDS011;55638;51.122;13.606;2023-12-28T04:15:32;0.65;;;0.50;;
68655;SDS011;55638;51.122;13.606;2023-12-28T04:17:04;1.50;;;0.68;;
68655;SDS011;55638;51.122;13.606;2023-12-28T04:18:36;0.65;;;0.43;;
68655;SDS011;55638;51.122;13.606;2023-12-28T04:20:08;1.17;;;0.50;;
68655;SDS011;55638;51.122;13.606;2023-12-28T04:21:43;1.00;;;0.57;;
68655;SDS011;55638;51.122;13.606;2023-12-28T04:23:15;1.55;;;0.50;;
68655;SDS011;55638;51.122;13.606;2023-12-28T04:24:48;1.50;;;0.50;;
68655;SDS011;55638;51.122;13.606;2023-12-28T04:26:19;1.50;;;0.55;;
68655;SDS011;55638;51.122;13.606;2023-12-28T04:27:54;0.95;;;0.60;;
68655;SDS011;55638;51.122;13.606;2023-12-28T04:29:26;1.27;;;0.93;;
68655;SDS011;55638;51.122;13.606;2023-12-28T04:30:58;1.75;;;0.65;;
68655;SDS011;55638;51.122;13.606;2023-12-28T04:32:30;1.10;;;0.68;;
68655;SDS011;55638;51.122;13.606;2023-12-28T04:34:06;0.82;;;0.47;;
68655;SDS011;55638;51.122;13.606;2023-12-28T04:35:39;0.82;;;0.65;;
68655;SDS011;55638;51.122;13.606;2023-12-28T04:37:11;0.75;;;0.50;;
68655;SDS011;55638;51.122;13.606;2023-12-28T04:38:43;1.55;;;0.80;;
68655;SDS011;55638;51.122;13.606;2023-12-28T04:40:15;1.67;;;0.60;;
68655;SDS011;55638;51.122;13.606;2023-12-28T04:41:47;0.82;;;0.70;;
68655;SDS011;55638;51.122;13.606;2023-12-28T04:43:18;0.75;;;0.60;;
68655;SDS011;55638;51.122;13.606;2023-12-28T04:44:50;0.88;;;0.60;;
68655;SDS011;55638;51.122;13.606;2023-12-28T04:46:22;1.20;;;0.70;;
68655;SDS011;55638;51.122;13.606;2023-12-28T04:47:54;0.70;;;0.70;;
68655;SDS011;55638;51.122;13.606;2023-12-28T04:49:27;0.85;;;0.70;;
68655;SDS011;55638;51.122;13.606;2023-12-28T04:51:01;1.58;;;0.77;;
68655;SDS011;55638;51.122;13.606;2023-12-28T04:52:34;1.13;;;0.60;;
68655;SDS011;55638;51.122;13.606;2023-12-28T04:54:06;1.38;;;0.60;;
68655;SDS011;55638;51.122;13.606;2023-12-28T04:55:38;1.55;;;0.63;;
68655;SDS011;55638;51.122;13.606;2023-12-28T04:57:10;1.48;;;0.73;;
68655;SDS011;55638;51.122;13.606;2023-12-28T04:58:42;0.50;;;0.50;;
68655;SDS011;55638;51.122;13.606;2023-12-28T05:00:14;1.20;;;0.70;;
68655;SDS011;55638;51.122;13.606;2023-12-28T05:01:46;1.05;;;0.60;;
68655;SDS011;55638;51.122;13.606;2023-12-28T05:03:19;1.30;;;0.70;;
68655;SDS011;55638;51.122;13.606;2023-12-28T05:04:51;1.08;;;0.70;;
68655;SDS011;55638;51.122;13.606;2023-12-28T05:06:23;1.58;;;0.75;;
68655;SDS011;55638;51.122;13.606;2023-12-28T05:07:55;0.95;;;0.70;;
68655;SDS011;55638;51.122;13.606;2023-12-28T05:09:28;1.50;;;0.85;;
68655;SDS011;55638;51.122;13.606;2023-12-28T05:10:59;0.90;;;0.70;;
68655;SDS011;55638;51.122;13.606;2023-12-28T05:12:31;1.65;;;0.82;;
68655;SDS011;55638;51.122;13.606;2023-12-28T05:14:14;0.93;;;0.82;;
68655;SDS011;55638;51.122;13.606;2023-12-28T05:15:46;1.05;;;0.70;;
68655;SDS011;55638;51.122;13.606;2023-12-28T05:17:18;1.70;;;0.77;;
68655;SDS011;55638;51.122;13.606;2023-12-28T05:18:50;1.13;;;0.50;;
68655;SDS011;55638;51.122;13.606;2023-12-28T05:20:22;1.23;;;0.80;;
68655;SDS011;55638;51.122;13.606;2023-12-28T05:21:54;1.17;;;0.70;;
68655;SDS011;55638;51.122;13.606;2023-12-28T05:23:26;0.80;;;0.60;;
68655;SDS011;55638;51.122;13.606;2023-12-28T05:24:58;1.30;;;0.70;;
68655;SDS011;55638;51.122;13.606;2023-12-28T05:26:30;0.65;;;0.60;;
68655;SDS011;55638;51.122;13.606;2023-12-28T05:28:02;1.15;;;0.60;;
68655;SDS011;55638;51.122;13.606;2023-12-28T05:29:34;1.52;;;0.80;;
68655;SDS011;55638;51.122;13.606;2023-12-28T05:31:06;0.68;;;0.52;;
68655;SDS011;55638;51.122;13.606;2023-12-28T05:32:38;0.98;;;0.70;;
68655;SDS011;55638;51.122;13.606;2023-12-28T05:34:11;1.05;;;0.60;;
68655;SDS011;55638;51.122;13.606;2023-12-28T05:35:43;1.70;;;0.60;;
68655;SDS011;55638;51.122;13.606;2023-12-28T05:37:15;1.00;;;0.57;;
68655;SDS011;55638;51.122;13.606;2023-12-28T05:38:47;0.85;;;0.60;;
68655;SDS011;55638;51.122;13.606;2023-12-28T05:40:19;0.93;;;0.60;;
68655;SDS011;55638;51.122;13.606;2023-12-28T05:41:50;0.82;;;0.55;;
68655;SDS011;55638;51.122;13.606;2023-12-28T05:43:22;1.67;;;0.60;;
68655;SDS011;55638;51.122;13.606;2023-12-28T05:44:54;0.70;;;0.50;;
68655;SDS011;55638;51.122;13.606;2023-12-28T05:46:26;1.05;;;0.70;;
68655;SDS011;55638;51.122;13.606;2023-12-28T05:47:58;1.02;;;0.60;;
68655;SDS011;55638;51.122;13.606;2023-12-28T05:49:30;1.38;;;0.60;;
68655;SDS011;55638;51.122;13.606;2023-12-28T05:51:03;1.13;;;0.77;;
68655;SDS011;55638;51.122;13.606;2023-12-28T05:52:35;1.25;;;0.60;;
68655;SDS011;55638;51.122;13.606;2023-12-28T05:54:07;1.00;;;0.80;;
68655;SDS011;55638;51.122;13.606;2023-12-28T05:55:40;0.70;;;0.50;;
68655;SDS011;55638;51.122;13.606;2023-12-28T05:57:12;1.35;;;0.70;;
68655;SDS011;55638;51.122;13.606;2023-12-28T05:58:44;0.68;;;0.50;;
68655;SDS011;55638;51.122;13.606;2023-12-28T06:00:16;0.95;;;0.70;;
68655;SDS011;55638;51.122;13.606;2023-12-28T06:01:48;0.73;;;0.63;;
68655;SDS011;55638;51.122;13.606;2023-12-28T06:03:20;0.98;;;0.60;;
68655;SDS011;55638;51.122;13.606;2023-12-28T06:04:53;0.95;;;0.60;;
68655;SDS011;55638;51.122;13.606;2023-12-28T06:06:25;0.80;;;0.50;;
68655;SDS011;55638;51.122;13.606;2023-12-28T06:07:57;1.33;;;0.50;;
68655;SDS011;55638;51.122;13.606;2023-12-28T06:09:29;0.95;;;0.60;;
68655;SDS011;55638;51.122;13.606;2023-12-28T06:11:01;0.80;;;0.50;;
68655;SDS011;55638;51.122;13.606;2023-12-28T06:12:33;1.00;;;0.80;;
68655;SDS011;55638;51.122;13.606;2023-12-28T06:14:05;1.00;;;0.60;;
68655;SDS011;55638;51.122;13.606;2023-12-28T06:15:37;0.77;;;0.60;;
68655;SDS011;55638;51.122;13.606;2023-12-28T06:17:09;1.10;;;0.50;;
68655;SDS011;55638;51.122;13.606;2023-12-28T06:18:41;2.35;;;0.75;;
68655;SDS011;55638;51.122;13.606;2023-12-28T06:20:13;1.10;;;0.70;;
68655;SDS011;55638;51.122;13.606;2023-12-28T06:21:45;0.80;;;0.57;;
68655;SDS011;55638;51.122;13.606;2023-12-28T06:23:17;1.42;;;0.50;;
68655;SDS011;55638;51.122;13.606;2023-12-28T06:24:49;0.98;;;0.60;;
68655;SDS011;55638;51.122;13.606;2023-12-28T06:26:21;1.02;;;0.70;;
68655;SDS011;55638;51.122;13.606;2023-12-28T06:27:53;2.03;;;0.75;;
68655;SDS011;55638;51.122;13.606;2023-12-28T06:29:25;1.05;;;0.68;;
68655;SDS011;55638;51.122;13.606;2023-12-28T06:30:57;1.20;;;0.80;;
68655;SDS011;55638;51.122;13.606;2023-12-28T06:32:32;1.42;;;0.73;;
68655;SDS011;55638;51.122;13.606;2023-12-28T06:34:05;1.58;;;0.80;;
68655;SDS011;55638;51.122;13.606;2023-12-28T06:35:38;0.95;;;0.55;;
68655;SDS011;55638;51.122;13.606;2023-12-28T06:37:10;1.00;;;0.70;;
68655;SDS011;55638;51.122;13.606;2023-12-28T06:38:42;0.88;;;0.60;;
68655;SDS011;55638;51.122;13.606;2023-12-28T06:40:13;1.30;;;0.70;;
68655;SDS011;55638;51.122;13.606;2023-12-28T06:41:48;0.93;;;0.70;;
68655;SDS011;55638;51.122;13.606;2023-12-28T06:43:20;1.15;;;0.70;;
68655;SDS011;55638;51.122;13.606;2023-12-28T06:44:52;1.25;;;0.80;;
68655;SDS011;55638;51.122;13.606;2023-12-28T06:46:24;1.25;;;0.90;;
68655;SDS011;55638;51.122;13.606;2023-12-28T06:47:56;1.90;;;0.93;;
68655;SDS011;55638;51.122;13.606;2023-12-28T06:49:28;1.10;;;0.70;;
68655;SDS011;55638;51.122;13.606;2023-12-28T06:51:00;0.90;;;0.65;;
68655;SDS011;55638;51.122;13.606;2023-12-28T06:52:32;1.15;;;0.63;;
68655;SDS011;55638;51.122;13.606;2023-12-28T06:54:04;1.20;;;0.70;;
68655;SDS011;55638;51.122;13.606;2023-12-28T06:55:36;1.17;;;0.80;;
68655;SDS011;55638;51.122;13.606;2023-12-28T06:57:08;0.85;;;0.70;;
68655;SDS011;55638;51.122;13.606;2023-12-28T06:58:40;1.20;;;0.60;;
68655;SDS011;55638;51.122;13.606;2023-12-28T07:00:12;4.40;;;0.70;;
68655;SDS011;55638;51.122;13.606;2023-12-28T07:01:44;0.98;;;0.70;;
68655;SDS011;55638;51.122;13.606;2023-12-28T07:03:17;1.58;;;1.00;;
68655;SDS011;55638;51.122;13.606;2023-12-28T07:04:49;1.85;;;1.13;;
68655;SDS011;55638;51.122;13.606;2023-12-28T07:06:21;1.20;;;1.00;;
68655;SDS011;55638;51.122;13.606;2023-12-28T07:07:53;1.17;;;0.80;;
68655;SDS011;55638;51.122;13.606;2023-12-28T07:09:24;1.48;;;0.90;;
68655;SDS011;55638;51.122;13.606;2023-12-28T07:10:56;3.15;;;0.98;;
68655;SDS011;55638;51.122;13.606;2023-12-28T07:12:31;2.13;;;0.90;;
68655;SDS011;55638;51.122;13.606;2023-12-28T07:14:03;1.75;;;1.02;;
68655;SDS011;55638;51.122;13.606;2023-12-28T07:15:35;1.30;;;0.75;;
68655;SDS011;55638;51.122;13.606;2023-12-28T07:17:07;0.85;;;0.80;;
68655;SDS011;55638;51.122;13.606;2023-12-28T07:18:39;2.17;;;1.30;;
68655;SDS011;55638;51.122;13.606;2023-12-28T07:20:11;3.17;;;1.00;;
68655;SDS011;55638;51.122;13.606;2023-12-28T07:21:43;1.65;;;1.00;;
68655;SDS011;55638;51.122;13.606;2023-12-28T07:23:15;1.15;;;0.90;;
68655;SDS011;55638;51.122;13.606;2023-12-28T07:24:47;1.50;;;1.00;;
68655;SDS011;55638;51.122;13.606;2023-12-28T07:26:19;1.30;;;0.88;;
68655;SDS011;55638;51.122;13.606;2023-12-28T07:27:50;1.13;;;0.80;;
68655;SDS011;55638;51.122;13.606;2023-12-28T07:29:23;1.83;;;0.90;;
68655;SDS011;55638;51.122;13.606;2023-12-28T07:30:58;1.77;;;1.00;;
68655;SDS011;55638;51.122;13.606;2023-12-28T07:32:30;1.40;;;1.00;;
68655;SDS011;55638;51.122;13.606;2023-12-28T07:34:02;1.48;;;1.00;;
68655;SDS011;55638;51.122;13.606;2023-12-28T07:35:34;1.15;;;0.80;;
68655;SDS011;55638;51.122;13.606;2023-12-28T07:37:06;1.02;;;0.70;;
68655;SDS011;55638;51.122;13.606;2023-12-28T07:38:38;1.50;;;1.00;;
68655;SDS011;55638;51.122;13.606;2023-12-28T07:40:11;1.90;;;1.00;;
68655;SDS011;55638;51.122;13.606;2023-12-28T07:41:44;1.42;;;0.70;;
68655;SDS011;55638;51.122;13.606;2023-12-28T07:43:16;1.25;;;0.90;;
68655;SDS011;55638;51.122;13.606;2023-12-28T07:44:48;1.40;;;0.98;;
68655;SDS011;55638;51.122;13.606;2023-12-28T07:46:20;0.95;;;0.75;;
68655;SDS011;55638;51.122;13.606;2023-12-28T07:47:52;1.63;;;1.10;;
68655;SDS011;55638;51.122;13.606;2023-12-28T07:49:24;1.70;;;1.30;;
68655;SDS011;55638;51.122;13.606;2023-12-28T07:50:57;1.05;;;0.90;;
68655;SDS011;55638;51.122;13.606;2023-12-28T07:52:29;0.95;;;0.85;;
68655;SDS011;55638;51.122;13.606;2023-12-28T07:54:01;1.25;;;0.88;;
68655;SDS011;55638;51.122;13.606;2023-12-28T07:55:33;1.20;;;0.95;;
68655;SDS011;55638;51.122;13.606;2023-12-28T07:57:05;1.33;;;0.80;;
68655;SDS011;55638;51.122;13.606;2023-12-28T07:58:37;1.10;;;0.73;;
68655;SDS011;55638;51.122;13.606;2023-12-28T08:00:11;1.60;;;1.08;;
68655;SDS011;55638;51.122;13.606;2023-12-28T08:01:43;1.40;;;0.90;;
68655;SDS011;55638;51.122;13.606;2023-12-28T08:03:15;1.08;;;0.80;;
68655;SDS011;55638;51.122;13.606;2023-12-28T08:04:47;1.42;;;1.10;;
68655;SDS011;55638;51.122;13.606;2023-12-28T08:06:20;1.73;;;1.05;;
68655;SDS011;55638;51.122;13.606;2023-12-28T08:07:52;1.83;;;0.90;;
68655;SDS011;55638;51.122;13.606;2023-12-28T08:09:24;1.42;;;1.10;;
68655;SDS011;55638;51.122;13.606;2023-12-28T08:10:56;1.85;;;0.93;;
68655;SDS011;55638;51.122;13.606;2023-12-28T08:12:28;1.25;;;1.00;;
68655;SDS011;55638;51.122;13.606;2023-12-28T08:14:00;1.13;;;0.80;;
68655;SDS011;55638;51.122;13.606;2023-12-28T08:15:33;0.90;;;0.80;;
68655;SDS011;55638;51.122;13.606;2023-12-28T08:17:05;1.40;;;0.90;;
68655;SDS011;55638;51.122;13.606;2023-12-28T08:18:37;1.17;;;1.00;;
68655;SDS011;55638;51.122;13.606;2023-12-28T08:20:09;1.00;;;0.90;;
68655;SDS011;55638;51.122;13.606;2023-12-28T08:21:41;1.05;;;0.85;;
68655;SDS011;55638;51.122;13.606;2023-12-28T08:23:13;1.80;;;1.00;;
68655;SDS011;55638;51.122;13.606;2023-12-28T08:24:49;1.40;;;0.80;;
68655;SDS011;55638;51.122;13.606;2023-12-28T08:26:21;1.92;;;0.88;;
68655;SDS011;55638;51.122;13.606;2023-12-28T08:27:52;1.65;;;1.02;;
68655;SDS011;55638;51.122;13.606;2023-12-28T08:29:25;1.90;;;1.15;;
68655;SDS011;55638;51.122;13.606;2023-12-28T08:30:57;1.85;;;0.90;;
68655;SDS011;55638;51.122;13.606;2023-12-28T08:32:29;2.15;;;0.82;;
68655;SDS011;55638;51.122;13.606;2023-12-28T08:34:02;1.42;;;1.00;;
68655;SDS011;55638;51.122;13.606;2023-12-28T08:35:34;1.13;;;0.82;;
68655;SDS011;55638;51.122;13.606;2023-12-28T08:37:06;2.33;;;0.82;;
68655;SDS011;55638;51.122;13.606;2023-12-28T08:38:38;1.42;;;1.10;;
68655;SDS011;55638;51.122;13.606;2023-12-28T08:40:10;2.08;;;0.88;;
68655;SDS011;55638;51.122;13.606;2023-12-28T08:41:42;3.72;;;0.93;;
68655;SDS011;55638;51.122;13.606;2023-12-28T08:43:14;2.15;;;1.10;;
68655;SDS011;55638;51.122;13.606;2023-12-28T08:44:46;2.10;;;0.80;;
68655;SDS011;55638;51.122;13.606;2023-12-28T08:46:21;1.50;;;1.15;;
68655;SDS011;55638;51.122;13.606;2023-12-28T08:47:53;1.52;;;0.95;;
68655;SDS011;55638;51.122;13.606;2023-12-28T08:49:25;2.22;;;1.10;;
68655;SDS011;55638;51.122;13.606;2023-12-28T08:50:57;1.40;;;0.90;;
68655;SDS011;55638;51.122;13.606;2023-12-28T08:52:29;1.90;;;1.00;;
68655;SDS011;55638;51.122;13.606;2023-12-28T08:54:01;1.08;;;0.98;;
68655;SDS011;55638;51.122;13.606;2023-12-28T08:55:33;1.77;;;1.10;;
68655;SDS011;55638;51.122;13.606;2023-12-28T08:57:06;2.50;;;1.10;;
68655;SDS011;55638;51.122;13.606;2023-12-28T08:58:38;2.03;;;0.93;;
68655;SDS011;55638;51.122;13.606;2023-12-28T09:00:10;2.22;;;1.15;;
68655;SDS011;55638;51.122;13.606;2023-12-28T09:01:43;1.20;;;1.10;;
68655;SDS011;55638;51.122;13.606;2023-12-28T09:03:15;1.38;;;0.80;;
68655;SDS011;55638;51.122;13.606;2023-12-28T09:04:46;1.38;;;0.90;;
68655;SDS011;55638;51.122;13.606;2023-12-28T09:06:18;1.40;;;0.80;;
68655;SDS011;55638;51.122;13.606;2023-12-28T09:07:52;2.20;;;1.15;;